createdAt,value
2022-11-10T00:08:47.668Z,101620.0
2022-11-10T00:18:22.988Z,101620.0
2022-11-10T00:28:47.675Z,101640.0
2022-11-10T00:48:23.002Z,101640.0
2022-11-10T00:58:47.678Z,101650.0
2022-11-10T01:08:23.011Z,101660.0
2022-11-10T01:18:23.015Z,101670.0
2022-11-10T01:28:23.019Z,101700.0
2022-11-10T01:38:23.027Z,101700.0
2022-11-10T01:48:23.026Z,101700.0
2022-11-10T01:58:47.696Z,101710.0
2022-11-10T02:08:23.027Z,101700.0
2022-11-10T02:18:23.036Z,101710.0
2022-11-10T02:28:23.034Z,101720.0
2022-11-10T02:38:23.042Z,101740.0
2022-11-10T02:48:23.036Z,101750.0
2022-11-10T02:58:23.055Z,101750.0
2022-11-10T03:08:47.721Z,101760.0
2022-11-10T03:18:47.720Z,101760.0
2022-11-10T03:28:47.722Z,101780.0
2022-11-10T03:38:23.054Z,101810.0
2022-11-10T03:48:23.062Z,101820.0
2022-11-10T03:58:23.062Z,101830.0
2022-11-10T04:08:23.059Z,101840.0
2022-11-10T04:18:23.069Z,101850.0
2022-11-10T04:28:23.065Z,101890.0
2022-11-10T04:38:23.087Z,101910.0
2022-11-10T04:48:23.081Z,101930.0
2022-11-10T04:58:23.078Z,101930.0
2022-11-10T05:08:23.081Z,101940.0
2022-11-10T05:18:23.084Z,101950.0
2022-11-10T05:28:23.094Z,101940.0
2022-11-10T05:38:23.087Z,101950.0
2022-11-10T05:48:23.098Z,101960.0
2022-11-10T05:58:23.104Z,101960.0
2022-11-10T06:08:23.103Z,102000.0
2022-11-10T06:18:23.100Z,101990.0
2022-11-10T06:58:23.113Z,102070.0
2022-11-10T07:08:47.809Z,102090.0
2022-11-10T07:18:23.119Z,102100.0
2022-11-10T07:28:47.797Z,102110.0
2022-11-10T07:38:47.790Z,102140.0
2022-11-10T07:58:23.129Z,102140.0
2022-11-10T08:08:47.814Z,102160.0
2022-11-10T08:18:23.152Z,102180.0
2022-11-10T08:28:23.135Z,102190.0
2022-11-10T08:48:23.148Z,102180.0
2022-11-10T08:58:53.187Z,102200.0
2022-11-10T09:08:47.823Z,102210.0
2022-11-10T09:18:23.071Z,102220.0
2022-11-10T09:28:23.067Z,102220.0
2022-11-10T09:38:23.337Z,102240.0
2022-11-10T09:48:23.395Z,102250.0
2022-11-10T09:58:23.419Z,102260.0
2022-11-10T10:08:23.376Z,102250.0
2022-11-10T10:18:23.381Z,102250.0
2022-11-10T10:28:23.657Z,102270.0
2022-11-10T10:38:23.470Z,102280.0
2022-11-10T10:48:23.490Z,102300.0
2022-11-10T10:58:23.560Z,102310.0
2022-11-10T11:08:23.502Z,102310.0
2022-11-10T11:18:23.267Z,102310.0
2022-11-10T11:28:23.421Z,102310.0
2022-11-10T11:38:23.359Z,102320.0
2022-11-10T11:48:23.423Z,102320.0
2022-11-10T11:58:23.414Z,102340.0
2022-11-10T12:08:23.476Z,102360.0
2022-11-10T12:18:23.534Z,102360.0
2022-11-10T12:28:23.569Z,102360.0
2022-11-10T12:38:23.502Z,102360.0
2022-11-10T12:48:23.429Z,102360.0
2022-11-10T12:58:23.580Z,102360.0
2022-11-10T13:08:23.734Z,102380.0
2022-11-10T13:18:23.546Z,102390.0
2022-11-10T13:28:23.572Z,102390.0
2022-11-10T13:38:23.504Z,102380.0
2022-11-10T13:48:23.453Z,102380.0
2022-11-10T13:58:23.564Z,102380.0
2022-11-10T14:08:23.581Z,102360.0
2022-11-10T14:18:23.390Z,102380.0
2022-11-10T14:28:23.620Z,102370.0
2022-11-10T14:38:23.679Z,102390.0
2022-11-10T14:48:23.516Z,102370.0
2022-11-10T14:58:23.656Z,102400.0
2022-11-10T15:08:23.458Z,102400.0
2022-11-10T18:32:11.771Z,102500.0
2022-11-10T18:37:11.779Z,102500.0
2022-11-10T18:42:11.777Z,102500.0
2022-11-10T18:47:11.777Z,102500.0
2022-11-10T18:52:11.784Z,102490.0
2022-11-10T18:57:11.785Z,102490.0
2022-11-10T19:02:11.795Z,102510.0
2022-11-10T19:07:11.865Z,102500.0
2022-11-10T19:12:11.807Z,102490.0
2022-11-10T19:17:11.799Z,102500.0
2022-11-10T19:22:11.801Z,102490.0
2022-11-10T19:27:11.797Z,102500.0
2022-11-10T19:32:11.804Z,102500.0
2022-11-10T19:37:11.804Z,102500.0
2022-11-10T19:42:11.805Z,102510.0
2022-11-10T19:47:11.835Z,102510.0
2022-11-10T19:52:11.807Z,102520.0
2022-11-10T19:57:11.808Z,102530.0
2022-11-10T20:02:13.506Z,102550.0
